Glen Ellen, California
Current Conditions -  °F | °C
As of 4:15 AM on Sunday 25 Jan 2015 (Local Time) from KO69 Reporting Station
Overcast Overcast  
Wind Chill: 39°   Ceiling: 400
Heat Index: 43°   Visibility: 3mi
Dew Point: 43°   Wind: 6mph
Humidity: 100%   Direction: 130°SE
Pressure: 30.18"   Gusts: NA
Location:  38.36°N, 122.53°W
Report Text: KO69 251215Z AUTO 13005KT 3SM OVC004 06/06 A3018 RMK AO1
Loading
Personal Weather Stations






























Interactive Weather Map New forecast layout! Learn more

10-Day Weather Forecast

Advertisements
Track Severe Weather on mobile